Portada
METAR-TAF:

METAR-TAF

Aeroports :

Kuching, Malàisia

latitud: 01-29N, longitud: 110-20E, altitud: 27 m

Observació

L'informe es va fer fa 29 minuts, a les 02:00 UTC
Vent 4 kt del Est/Sud-Est, variant entre Nord-Est i Sud/Sud-Oest
Temperatura 30°C
Humitat 84%
Pressió 1010 hPa
Visibilitat 10 km o més
Núvols disperses a una alçada de 1400 ft

METAR: WBGG 300200Z 12004KT 050V200 9999 SCT014 30/27 Q1010 NOSIG

Hora: 10:29 (02:29 UTC)

Pronòstic

L'informe es va fer fa 3 hores i 29 minuts, a les 23:00 UTC
Pronòstic vàlid del 30 a les 00 UTC al 01 a les 00 UTC
Vent 3 kt amb direcció variable
Visibilitat 10 km o més
Escasses núvols a una alçada de 2000 ft
Temporalment
l' 30 a les 08 UTC al 30 a les 12 UTC
Visibilitat: 1500 m
Escasses núvols a una alçada de 1500 ft, Cumulonimbus.
Núvols disperses a una alçada de 1800 ft
tempesta, pluja

TAF: WBGG 292300Z 3000/0100 VRB03KT 9999 FEW020 TEMPO 3008/3012 1500 +TSRA FEW015CB SCT018

Observacions i pronòstics meteorològics de més de 4000 aeroports (METAR i TAF).

Les estacions disponibles són els punts grocs i vermells al mapa.

Posi el ratolí al punt desitjat per veure el nom de l'estació.

Feu clic per veure les observacions i els pronòstics meteorològics.

Per canviar el mapa: feu clic els botons verds amb una creu de color negre per apropar; al botó verd amb un guió per allunyar la imatge; o en les fletxes verdes per a mapes adjacents.


METAR-TAF: